Terminal Aerodrome Forecast
Issued by NWS

Home | Current Version | Previous Version | Text Only | Print | Product List | Glossary On
Versions: 1 2 3 4 5 6 7 8 9 10 11 12 13 14 15 16 17 18 19 20 21 22 23 24 25 26 27 28 29 30 31 32 33 34 35
000
FTUS43 KLOT 201900 AAB
TAFDPA
TAF AMD
KDPA 201957Z 2020/2118 25012G18KT P6SM SCT040 SCT250
     FM210200 VRB03KT P6SM FEW040 BKN150
     FM210900 VRB03KT P6SM VCTS BKN050CB
      TEMPO 2109/2112 3SM -TSRA BKN040CB
     FM211200 10006KT P6SM SCT035 BKN050 PROB30 2112/2117 -TSRA
      BKN035CB=

USA.gov is the U.S. government's official web portal to all federal, state and local government web resources and services.